createdAt,value
2023-05-05T00:05:53.295Z,0
2023-05-05T00:10:53.244Z,0
2023-05-05T00:15:52.347Z,0
2023-05-05T00:20:54.199Z,0
2023-05-05T00:30:50.062Z,0
2023-05-05T00:35:49.581Z,0
2023-05-05T00:45:57.567Z,0
2023-05-05T00:50:56.673Z,0
2023-05-05T01:00:18.091Z,0
2023-05-05T01:05:16.749Z,0
2023-05-05T01:10:39.217Z,0
2023-05-05T01:15:17.272Z,0
2023-05-05T01:20:14.540Z,0
2023-05-05T01:25:13.830Z,0
2023-05-05T01:30:14.058Z,0
2023-05-05T01:35:15.522Z,0
2023-05-05T01:40:11.452Z,0
2023-05-05T01:45:12.419Z,0
2023-05-05T01:50:11.677Z,0
2023-05-05T01:55:10.855Z,0
2023-05-05T01:59:53.774Z,0
2023-05-05T02:04:53.721Z,0
2023-05-05T02:09:53.218Z,0
2023-05-05T02:14:54.560Z,0
2023-05-05T02:19:51.046Z,0
2023-05-05T02:24:50.581Z,0
2023-05-05T02:29:50.272Z,0
2023-05-05T02:34:49.866Z,0
2023-05-05T02:39:57.696Z,0
2023-05-05T02:44:57.742Z,0
2023-05-05T02:49:59.474Z,0
2023-05-05T02:54:56.335Z,0
2023-05-05T02:59:58.459Z,0
2023-05-05T03:04:55.852Z,0
2023-05-05T03:09:53.813Z,0
2023-05-05T03:14:54.934Z,0
2023-05-05T03:19:54.224Z,0
2023-05-05T03:24:42.123Z,0
2023-05-05T03:29:42.156Z,0
2023-05-05T03:34:41.507Z,0
2023-05-05T03:39:41.497Z,0
2023-05-05T03:44:38.966Z,0
2023-05-05T03:49:38.607Z,0
2023-05-05T03:54:38.995Z,0
2023-05-05T03:59:38.290Z,0
2023-05-05T04:04:38.511Z,0
2023-05-05T04:09:37.239Z,0
2023-05-05T04:14:36.892Z,0
2023-05-05T04:19:37.555Z,0
2023-05-05T04:24:35.852Z,0
2023-05-05T04:29:36.258Z,0
2023-05-05T04:34:35.201Z,0.01
2023-05-05T04:44:34.154Z,0.01
2023-05-05T04:49:34.330Z,0.02
2023-05-05T04:59:33.878Z,0.04
2023-05-05T05:04:32.656Z,0.04
2023-05-05T05:14:31.066Z,0.06
2023-05-05T05:19:33.634Z,0.07
2023-05-05T05:29:29.938Z,0.07
2023-05-05T05:34:32.290Z,0.08
2023-05-05T05:44:30.322Z,0.09
2023-05-05T05:49:27.074Z,0.09
2023-05-05T05:59:26.557Z,0.11
2023-05-05T06:05:58.806Z,0.11
2023-05-05T06:16:00.103Z,0.14
2023-05-05T06:20:57.118Z,0.15
2023-05-05T06:25:57.032Z,0.14
2023-05-05T06:30:59.260Z,0.15
2023-05-05T06:35:56.119Z,0.16
2023-05-05T06:40:56.392Z,0.17
2023-05-05T06:45:57.856Z,0.19
2023-05-05T06:50:54.445Z,0.21
2023-05-05T06:55:54.287Z,0.23
2023-05-05T06:59:49.257Z,0.26
2023-05-05T07:04:57.482Z,0.26
2023-05-05T07:09:59.992Z,0.26
2023-05-05T07:14:57.992Z,0.23
2023-05-05T07:19:57.033Z,0.21
2023-05-05T07:24:57.064Z,0.25
2023-05-05T07:29:57.329Z,0.27
2023-05-05T07:34:55.762Z,0.29
2023-05-05T07:39:55.048Z,0.28
2023-05-05T07:44:55.317Z,0.29
2023-05-05T07:49:54.334Z,0.36
2023-05-05T07:54:54.970Z,0.46
2023-05-05T07:59:54.593Z,0.45
2023-05-05T08:04:57.766Z,0.4
2023-05-05T08:09:53.553Z,0.52
2023-05-05T08:14:53.170Z,0.5
2023-05-05T08:20:08.419Z,0.38
2023-05-05T08:24:41.963Z,0.36
2023-05-05T08:29:42.135Z,0.37
2023-05-05T08:34:41.951Z,0.65
2023-05-05T08:39:41.587Z,0.41
2023-05-05T08:44:40.482Z,0.44
2023-05-05T08:49:40.714Z,0.47
2023-05-05T08:54:39.828Z,0.46
2023-05-05T08:59:38.113Z,0.43
2023-05-05T09:05:58.908Z,0.3
2023-05-05T09:10:57.942Z,0.24
2023-05-05T09:20:58.102Z,0.28
2023-05-05T09:25:56.867Z,0.35
2023-05-05T09:30:56.399Z,0.46
2023-05-05T09:35:57.358Z,0.51
2023-05-05T09:40:54.208Z,0.45
2023-05-05T09:45:53.533Z,0.54
2023-05-05T09:50:53.218Z,0.65
2023-05-05T09:55:53.026Z,0.33
2023-05-05T10:00:13.913Z,0.34
2023-05-05T10:05:13.352Z,0.36
2023-05-05T10:10:13.661Z,0.41
2023-05-05T10:15:13.305Z,0.48
2023-05-05T10:20:12.586Z,0.53
2023-05-05T10:25:12.291Z,0.45
2023-05-05T10:30:12.873Z,0.43
2023-05-05T10:35:12.794Z,0.52
2023-05-05T10:40:10.792Z,0.62
2023-05-05T10:45:10.674Z,0.54
2023-05-05T10:50:09.806Z,0.57
2023-05-05T10:55:10.404Z,0.65
2023-05-05T11:00:02.464Z,0.43
2023-05-05T11:05:01.604Z,0.37
2023-05-05T11:10:01.735Z,0.41
2023-05-05T11:15:01.094Z,0.44
2023-05-05T11:20:01.936Z,0.68
2023-05-05T11:24:58.383Z,0.61
2023-05-05T11:30:00.293Z,0.65
2023-05-05T11:34:57.871Z,0.85
2023-05-05T11:39:58.208Z,1.02
2023-05-05T11:44:55.662Z,0.87
2023-05-05T11:49:55.082Z,0.78
2023-05-05T11:54:54.354Z,0.75
2023-05-05T11:59:42.444Z,0.63
2023-05-05T12:04:42.992Z,0.64
2023-05-05T12:09:41.705Z,0.59
2023-05-05T12:14:42.437Z,0.68
2023-05-05T12:19:41.565Z,1.11
2023-05-05T12:24:39.186Z,1.01
2023-05-05T12:29:39.103Z,0.58
2023-05-05T12:34:39.977Z,0.63
2023-05-05T12:39:39.893Z,0.61
2023-05-05T12:44:39.485Z,0.93
2023-05-05T12:49:42.839Z,0.51
2023-05-05T12:54:37.864Z,0.73
2023-05-05T12:59:37.493Z,0.93
2023-05-05T13:04:38.849Z,0.78
2023-05-05T13:09:35.049Z,0.55
2023-05-05T13:14:35.086Z,0.5
2023-05-05T13:19:34.524Z,0.55
2023-05-05T13:25:11.607Z,0.44
2023-05-05T13:29:31.798Z,0.5
2023-05-05T13:34:30.758Z,0.4
2023-05-05T13:39:30.177Z,0.49
2023-05-05T13:44:29.463Z,0.33
2023-05-05T13:49:29.433Z,0.28
2023-05-05T13:54:29.693Z,0.38
2023-05-05T13:59:30.969Z,0.34
2023-05-05T14:05:58.154Z,0.73
2023-05-05T14:11:00.817Z,0.7
2023-05-05T14:15:58.728Z,0.6
2023-05-05T14:20:58.225Z,0.43
2023-05-05T14:25:58.229Z,0.32
2023-05-05T14:30:57.924Z,0.26
2023-05-05T14:35:59.948Z,0.2
2023-05-05T14:40:59.209Z,0.19
2023-05-05T14:45:56.237Z,0.2
2023-05-05T14:50:57.282Z,0.16
2023-05-05T14:55:54.449Z,0.1
2023-05-05T14:59:56.873Z,0.08
2023-05-05T15:04:59.787Z,0.07
2023-05-05T15:09:54.907Z,0.06
2023-05-05T15:14:54.326Z,0.03
2023-05-05T15:19:54.040Z,0.02
2023-05-05T15:24:52.874Z,0.01
2023-05-05T15:29:43.944Z,0.01
2023-05-05T15:34:41.471Z,0.01
2023-05-05T15:39:42.501Z,0.01
2023-05-05T15:44:38.950Z,0.01
2023-05-05T15:49:38.236Z,0.01
2023-05-05T15:54:37.384Z,0.02
2023-05-05T16:00:29.205Z,0.05
2023-05-05T16:04:36.778Z,0.05
2023-05-05T16:09:36.215Z,0.06
2023-05-05T16:14:37.373Z,0.05
2023-05-05T16:19:34.762Z,0.05
2023-05-05T16:24:34.406Z,0.05
2023-05-05T16:29:33.995Z,0.05
2023-05-05T16:34:33.630Z,0.07
2023-05-05T16:39:31.220Z,0.08
2023-05-05T16:44:30.774Z,0.08
2023-05-05T16:49:31.006Z,0.09
2023-05-05T16:54:31.595Z,0.07
2023-05-05T16:59:31.469Z,0.05
2023-05-05T17:04:29.666Z,0.03
2023-05-05T17:09:29.222Z,0.03
2023-05-05T17:14:28.924Z,0.03
2023-05-05T17:19:26.558Z,0.04
2023-05-05T17:24:26.199Z,0.03
2023-05-05T17:29:26.585Z,0.03
2023-05-05T17:34:27.795Z,0.02
2023-05-05T17:39:23.968Z,0.02
2023-05-05T17:44:24.478Z,0.01
2023-05-05T17:49:23.399Z,0.01
2023-05-05T17:54:23.012Z,0
2023-05-05T17:59:20.646Z,0
2023-05-05T18:10:41.002Z,0
2023-05-05T18:15:40.813Z,0
2023-05-05T18:25:40.607Z,0
2023-05-05T18:30:39.447Z,0
2023-05-05T18:40:37.939Z,0
2023-05-05T18:45:37.029Z,0
2023-05-05T18:55:35.963Z,0
2023-05-05T19:00:02.199Z,0
2023-05-05T19:05:16.687Z,0
2023-05-05T19:10:01.590Z,0
2023-05-05T19:15:02.317Z,0
2023-05-05T19:24:58.777Z,0
2023-05-05T19:29:58.277Z,0
2023-05-05T19:39:59.756Z,0
2023-05-05T19:44:54.844Z,0
2023-05-05T19:54:54.501Z,0
2023-05-05T19:59:42.017Z,0
2023-05-05T20:09:40.449Z,0
2023-05-05T20:14:39.687Z,0
2023-05-05T20:24:37.613Z,0
2023-05-05T20:29:38.638Z,0
2023-05-05T20:39:35.830Z,0
2023-05-05T20:44:35.849Z,0
2023-05-05T20:54:35.011Z,0
2023-05-05T20:59:36.054Z,0
2023-05-05T21:09:31.871Z,0
2023-05-05T21:14:31.460Z,0
2023-05-05T21:24:29.634Z,0
2023-05-05T21:29:28.440Z,0
2023-05-05T21:34:28.614Z,0
2023-05-05T21:39:30.595Z,0
2023-05-05T21:44:27.607Z,0
2023-05-05T21:49:27.220Z,0
2023-05-05T21:54:27.155Z,0
2023-05-05T21:59:28.017Z,0
2023-05-05T22:05:49.312Z,0
2023-05-05T22:10:58.803Z,0
2023-05-05T22:16:10.957Z,0
2023-05-05T22:20:57.656Z,0
2023-05-05T22:25:57.039Z,0
2023-05-05T22:30:57.183Z,0
2023-05-05T22:35:55.222Z,0
2023-05-05T22:40:56.497Z,0
2023-05-05T22:45:55.321Z,0
2023-05-05T22:50:54.540Z,0
2023-05-05T22:55:55.029Z,0
2023-05-05T22:59:49.917Z,0
2023-05-05T23:04:49.804Z,0
2023-05-05T23:09:56.948Z,0
2023-05-05T23:14:56.583Z,0
2023-05-05T23:19:56.606Z,0
2023-05-05T23:24:55.725Z,0
2023-05-05T23:29:55.814Z,0
2023-05-05T23:34:56.251Z,0
2023-05-05T23:39:54.381Z,0
2023-05-05T23:44:54.302Z,0
2023-05-05T23:49:54.333Z,0
2023-05-05T23:54:53.622Z,0
2023-05-05T23:59:53.059Z,0
